Time;durP1;ratioP1;P1;durP2;ratioP2;P2;SDS_P1;SDS_P2;PMS_P1;PMS_P2;Temp;Humidity;BMP_temperature;BMP_pressure;BME280_temperature;BME280_humidity;BME280_pressure;Samples;Min_cycle;Max_cycle;Signal;HPM_P1;HPM_P2
2023/04/01 00:00:18;;;;;;;8.82;6.43;;;;;;;1.78;85.48;97892.00;7340656;19;20022;-64
2023/04/01 00:02:43;;;;;;;11.20;6.53;;;;;;;1.78;85.70;97894.63;7339589;19;20489;-64
2023/04/01 00:05:08;;;;;;;11.57;6.72;;;;;;;1.79;85.65;97892.84;7340089;19;20884;-64
2023/04/01 00:07:33;;;;;;;12.25;6.72;;;;;;;1.79;85.54;97896.34;7341874;19;20010;-69
2023/04/01 00:09:57;;;;;;;11.90;7.03;;;;;;;1.78;85.54;97886.75;7344874;19;20025;-73
2023/04/01 00:12:22;;;;;;;12.35;7.15;;;;;;;1.76;85.41;97886.00;7344581;19;20010;-73
2023/04/01 00:14:47;;;;;;;12.65;7.72;;;;;;;1.72;85.56;97891.53;7341276;19;20010;-73
2023/04/01 00:17:11;;;;;;;12.85;7.85;;;;;;;1.70;85.56;97889.00;7339744;19;20040;-67
2023/04/01 00:19:36;;;;;;;11.15;7.25;;;;;;;1.71;85.45;97887.22;7343326;19;20025;-76
2023/04/01 00:22:01;;;;;;;8.95;6.22;;;;;;;1.64;85.55;97878.91;7344458;19;20427;-75
2023/04/01 00:24:26;;;;;;;14.55;8.10;;;;;;;1.58;85.60;97883.72;7342979;19;20387;-73
2023/04/01 00:26:50;;;;;;;13.18;7.93;;;;;;;1.54;85.88;97874.34;7341555;19;20033;-73
2023/04/01 00:29:15;;;;;;;11.80;7.22;;;;;;;1.55;86.10;97874.25;7340695;19;20019;-74
2023/04/01 00:31:40;;;;;;;12.93;7.50;;;;;;;1.50;85.99;97868.44;7344950;19;20474;-74
2023/04/01 00:34:04;;;;;;;14.57;7.90;;;;;;;1.52;86.25;97871.81;7344632;19;20018;-73
2023/04/01 00:36:29;;;;;;;13.68;8.15;;;;;;;1.55;86.38;97862.91;7344131;19;20118;-70
2023/04/01 00:38:54;;;;;;;12.68;7.97;;;;;;;1.59;86.71;97862.59;7340884;19;20007;-73
2023/04/01 00:41:20;;;;;;;12.60;7.00;;;;;;;1.67;86.62;97862.13;7337794;19;20510;-72
2023/04/01 00:43:48;;;;;;;14.93;8.48;;;;;;;1.70;86.44;97873.25;7344554;19;20031;-73
2023/04/01 00:46:13;;;;;;;13.55;8.45;;;;;;;1.67;86.49;97862.97;7339557;19;20006;-73
2023/04/01 00:48:43;;;;;;;12.88;8.20;;;;;;;1.67;86.46;97865.59;7341163;19;20037;-73
2023/04/01 00:51:18;;;;;;;12.27;7.90;;;;;;;1.72;86.57;97866.13;7342939;19;20238;-74
2023/04/01 00:53:46;;;;;;;11.55;7.45;;;;;;;1.68;86.50;97862.03;7339750;19;20015;-73
2023/04/01 00:56:20;;;;;;;12.98;8.52;;;;;;;1.69;86.37;97870.75;7345155;19;20014;-74
2023/04/01 00:58:53;;;;;;;12.18;7.68;;;;;;;1.71;86.36;97860.97;7342981;19;20018;-74
2023/04/01 01:01:21;;;;;;;11.82;7.72;;;;;;;1.68;86.54;97858.56;7338780;19;20477;-75
2023/04/01 01:03:46;;;;;;;14.55;8.55;;;;;;;1.70;86.52;97861.91;7343921;19;20034;-74
2023/04/01 01:06:27;;;;;;;14.60;8.75;;;;;;;1.76;86.67;97872.88;7338971;19;20010;-74
2023/04/01 01:09:17;;;;;;;14.55;8.55;;;;;;;1.76;86.63;97862.38;7339033;19;20025;-74
2023/04/01 01:11:47;;;;;;;14.20;8.35;;;;;;;1.73;86.39;97861.72;7340671;19;20033;-73
2023/04/01 01:14:50;;;;;;;16.73;8.68;;;;;;;1.72;86.35;97865.28;7343770;19;20010;-69
2023/04/01 01:17:48;;;;;;;14.05;9.00;;;;;;;1.69;86.39;97866.31;7341258;19;20025;-70
2023/04/01 01:20:22;;;;;;;16.38;8.20;;;;;;;1.58;86.36;97868.78;7339140;19;20018;-68
2023/04/01 01:23:20;;;;;;;16.00;8.55;;;;;;;1.58;86.62;97867.97;7336429;19;20026;-71
2023/04/01 01:25:55;;;;;;;17.00;9.48;;;;;;;1.58;86.70;97868.78;7338284;19;20030;-69
2023/04/01 01:28:47;;;;;;;17.38;8.85;;;;;;;1.63;86.75;97874.59;7337936;19;20011;-69
2023/04/01 01:31:30;;;;;;;14.45;8.68;;;;;;;1.66;87.00;97878.81;7336307;19;20394;-70
2023/04/01 01:34:22;;;;;;;15.35;9.13;;;;;;;1.66;87.01;97871.78;7335519;19;20017;-73
2023/04/01 01:36:53;;;;;;;14.13;8.88;;;;;;;1.59;86.90;97859.97;7336992;19;20014;-72
2023/04/01 01:39:20;;;;;;;13.80;8.82;;;;;;;1.59;86.88;97867.84;7336733;19;20539;-74
2023/04/01 01:41:49;;;;;;;17.85;10.40;;;;;;;1.60;86.82;97866.91;7343699;19;20368;-74
2023/04/01 01:44:15;;;;;;;13.05;7.80;;;;;;;1.65;86.80;97877.97;7346564;19;20017;-74
2023/04/01 01:46:42;;;;;;;16.70;9.15;;;;;;;1.65;86.89;97874.50;7346114;19;20011;-75
2023/04/01 01:49:10;;;;;;;17.27;9.20;;;;;;;1.65;86.71;97867.47;7348366;19;20019;-71
2023/04/01 01:51:35;;;;;;;15.27;9.57;;;;;;;1.65;87.01;97871.88;7354607;19;20015;-74
2023/04/01 01:54:03;;;;;;;15.88;9.50;;;;;;;1.70;87.01;97870.63;7362832;19;20155;-72
2023/04/01 01:56:32;;;;;;;15.38;8.98;;;;;;;1.73;86.88;97870.44;7360756;19;20011;-78
2023/04/01 01:59:03;;;;;;;16.67;10.32;;;;;;;1.74;86.85;97873.91;7347174;19;20019;-75
2023/04/01 02:01:31;;;;;;;17.58;10.02;;;;;;;1.69;86.75;97871.56;7343919;19;20006;-71
2023/04/01 02:04:04;;;;;;;16.50;10.65;;;;;;;1.69;86.80;97881.25;7345695;19;20018;-72
2023/04/01 02:06:33;;;;;;;19.30;10.60;;;;;;;1.72;86.88;97875.78;7345659;19;20469;-69
2023/04/01 02:09:04;;;;;;;16.67;10.05;;;;;;;1.77;87.16;97873.72;7347793;19;20021;-70
2023/04/01 02:11:36;;;;;;;16.55;9.70;;;;;;;1.81;86.86;97877.81;7347377;19;20453;-69
2023/04/01 02:14:10;;;;;;;16.33;9.70;;;;;;;1.78;86.58;97875.41;7345857;19;20014;-70
2023/04/01 02:17:04;;;;;;;16.40;10.52;;;;;;;1.79;86.63;97877.94;7352059;19;20014;-66
2023/04/01 02:19:34;;;;;;;21.13;12.15;;;;;;;1.79;86.36;97879.72;7357385;19;20058;-70
2023/04/01 02:22:02;;;;;;;17.05;10.40;;;;;;;1.72;86.45;97881.88;7352735;19;20039;-68
2023/04/01 02:24:31;;;;;;;17.63;10.52;;;;;;;1.74;86.24;97879.16;7355052;19;20026;-68
2023/04/01 02:26:55;;;;;;;21.50;12.05;;;;;;;1.66;86.01;97884.91;7352044;19;20019;-72
2023/04/01 02:29:23;;;;;;;19.50;11.07;;;;;;;1.60;85.97;97874.78;7351542;19;20022;-68
2023/04/01 02:31:50;;;;;;;19.80;12.15;;;;;;;1.51;86.03;97890.28;7346578;19;20760;-68
2023/04/01 02:34:15;;;;;;;22.65;11.50;;;;;;;1.37;86.13;97897.22;7346341;19;20049;-71
2023/04/01 02:36:39;;;;;;;24.75;13.50;;;;;;;1.30;86.43;97888.06;7343348;19;20011;-69
2023/04/01 02:39:06;;;;;;;22.48;12.73;;;;;;;1.33;86.82;97892.28;7343677;19;20014;-69
2023/04/01 02:41:43;;;;;;;19.23;10.35;;;;;;;1.44;87.19;97897.72;7343059;19;20010;-69
2023/04/01 02:44:08;;;;;;;18.08;10.90;;;;;;;1.45;87.25;97888.91;7344839;19;20014;-69
2023/04/01 02:46:33;;;;;;;17.38;10.23;;;;;;;1.50;87.33;97892.06;7343980;19;20587;-69
2023/04/01 02:48:58;;;;;;;16.75;11.68;;;;;;;1.48;87.20;97896.56;7347889;19;20465;-69
2023/04/01 02:51:22;;;;;;;13.82;9.68;;;;;;;1.50;87.06;97891.22;7346339;19;20026;-70
2023/04/01 02:53:47;;;;;;;16.13;9.52;;;;;;;1.55;87.26;97900.50;7347688;19;20100;-70
2023/04/01 02:56:12;;;;;;;16.90;10.07;;;;;;;1.58;87.14;97897.66;7344099;19;20019;-71
2023/04/01 02:58:36;;;;;;;16.65;10.07;;;;;;;1.54;87.17;97898.81;7350692;19;20015;-64
2023/04/01 03:01:01;;;;;;;17.90;9.85;;;;;;;1.51;86.94;97899.00;7348270;19;20015;-63
2023/04/01 03:03:25;;;;;;;18.70;10.93;;;;;;;1.49;87.16;97895.63;7349378;19;20090;-67
2023/04/01 03:05:55;;;;;;;15.32;8.95;;;;;;;1.49;87.29;97903.50;7342700;19;20089;-63
2023/04/01 03:08:19;;;;;;;19.02;11.10;;;;;;;1.56;87.41;97902.19;7346085;19;20014;-66
2023/04/01 03:10:44;;;;;;;19.23;11.30;;;;;;;1.61;87.55;97902.72;7341996;19;20013;-75
2023/04/01 03:13:09;;;;;;;18.75;10.57;;;;;;;1.64;87.62;97909.59;7342087;19;20007;-74
2023/04/01 03:15:34;;;;;;;17.63;11.10;;;;;;;1.69;87.38;97903.09;7346627;19;20477;-73
2023/04/01 03:17:58;;;;;;;16.88;9.93;;;;;;;1.75;87.24;97907.13;7344655;19;20026;-73
2023/04/01 03:20:23;;;;;;;17.08;10.07;;;;;;;1.70;87.10;97910.03;7346267;19;20064;-73
2023/04/01 03:22:48;;;;;;;16.55;9.88;;;;;;;1.68;86.87;97917.19;7355590;19;20019;-72
2023/04/01 03:25:13;;;;;;;15.13;9.50;;;;;;;1.72;87.01;97902.06;7359853;19;20070;-73
2023/04/01 03:27:38;;;;;;;18.15;9.90;;;;;;;1.71;86.97;97906.47;7359321;19;20017;-72
2023/04/01 03:30:05;;;;;;;16.70;9.85;;;;;;;1.76;87.25;97912.28;7356043;19;20061;-72
2023/04/01 03:32:35;;;;;;;13.88;8.35;;;;;;;1.74;86.88;97910.69;7353740;19;20047;-70
2023/04/01 03:34:59;;;;;;;14.93;8.90;;;;;;;1.68;86.70;97916.34;7347797;19;20006;-69
2023/04/01 03:37:24;;;;;;;18.08;10.23;;;;;;;1.63;86.92;97918.41;7344444;19;20041;-68
2023/04/01 03:39:49;;;;;;;14.90;9.48;;;;;;;1.61;87.10;97921.13;7343694;19;20359;-68
2023/04/01 03:42:14;;;;;;;17.27;8.45;;;;;;;1.59;87.00;97922.16;7341312;19;20010;-69
2023/04/01 03:44:39;;;;;;;17.40;9.45;;;;;;;1.55;87.18;97926.78;7342833;19;20007;-68
2023/04/01 03:47:03;;;;;;;15.63;9.32;;;;;;;1.53;87.36;97936.53;7343139;19;20033;-68
2023/04/01 03:49:28;;;;;;;14.88;9.43;;;;;;;1.57;87.59;97940.66;7341095;19;20033;-68
2023/04/01 03:51:56;;;;;;;18.70;9.77;;;;;;;1.56;87.44;97935.50;7341185;19;20092;-69
2023/04/01 03:54:22;;;;;;;15.80;8.90;;;;;;;1.56;87.22;97933.72;7344962;19;20518;-69
2023/04/01 03:56:47;;;;;;;14.60;8.30;;;;;;;1.60;87.26;97932.56;7342729;19;20034;-68
2023/04/01 03:59:12;;;;;;;12.60;8.63;;;;;;;1.60;87.24;97948.31;7341351;19;20010;-68
2023/04/01 04:01:37;;;;;;;14.82;10.43;;;;;;;1.61;87.29;97952.63;7340572;19;20026;-69
2023/04/01 04:04:01;;;;;;;13.95;8.07;;;;;;;1.68;87.36;97950.50;7338855;19;20018;-69
2023/04/01 04:06:27;;;;;;;12.70;8.35;;;;;;;1.68;87.28;97953.97;7341844;19;20082;-68
2023/04/01 04:08:53;;;;;;;14.20;7.90;;;;;;;1.68;87.24;97959.22;7341666;19;20031;-68
2023/04/01 04:11:19;;;;;;;17.50;9.85;;;;;;;1.69;87.11;97963.50;7340956;19;20031;-67
2023/04/01 04:13:44;;;;;;;16.58;9.43;;;;;;;1.67;87.17;97960.16;7340327;19;20356;-68
2023/04/01 04:16:10;;;;;;;15.68;9.05;;;;;;;1.73;87.10;97967.63;7340075;19;20038;-67
2023/04/01 04:18:39;;;;;;;15.93;9.00;;;;;;;1.68;87.16;97972.34;7339422;19;20031;-73
2023/04/01 04:21:04;;;;;;;13.50;8.80;;;;;;;1.75;87.21;97968.38;7339658;19;20029;-71
2023/04/01 04:23:30;;;;;;;14.10;8.85;;;;;;;1.77;87.09;97977.03;7339346;19;20018;-72
2023/04/01 04:26:02;;;;;;;14.00;7.85;;;;;;;1.81;87.05;97975.88;7343786;19;20374;-68
2023/04/01 04:28:28;;;;;;;13.82;8.00;;;;;;;1.81;87.15;97972.41;7344545;19;20040;-70
2023/04/01 04:30:54;;;;;;;18.73;9.48;;;;;;;1.85;87.35;97970.44;7343941;19;20039;-69
2023/04/01 04:33:21;;;;;;;13.75;8.43;;;;;;;1.86;86.93;97978.22;7339315;19;20023;-70
2023/04/01 04:35:45;;;;;;;15.13;8.65;;;;;;;1.83;86.98;97978.41;7342375;19;20015;-70
2023/04/01 04:38:10;;;;;;;14.57;9.18;;;;;;;1.82;87.09;97971.47;7345069;19;20015;-69
2023/04/01 04:40:40;;;;;;;17.83;9.18;;;;;;;1.86;87.32;97980.84;7339745;19;20022;-69
2023/04/01 04:43:05;;;;;;;16.15;9.18;;;;;;;1.85;87.26;97979.16;7339844;19;20437;-69
2023/04/01 04:45:30;;;;;;;14.82;8.73;;;;;;;1.94;87.58;97975.94;7339664;19;20459;-71
2023/04/01 04:47:55;;;;;;;19.95;9.10;;;;;;;2.06;87.63;97976.94;7339836;19;20011;-70
2023/04/01 04:50:20;;;;;;;13.23;8.38;;;;;;;2.18;87.53;97984.91;7339636;19;20014;-71
2023/04/01 04:52:45;;;;;;;17.35;9.93;;;;;;;2.30;87.42;97985.91;7339121;19;20037;-71
2023/04/01 04:55:10;;;;;;;14.63;8.65;;;;;;;2.41;87.03;97993.94;7339548;19;20019;-71
2023/04/01 04:57:37;;;;;;;16.45;9.30;;;;;;;2.47;86.87;97990.94;7343793;19;20018;-72
2023/04/01 05:00:02;;;;;;;19.15;11.13;;;;;;;2.39;86.28;97994.97;7342566;19;20018;-69
2023/04/01 05:02:59;;;;;;;16.25;9.48;;;;;;;2.44;86.02;97985.00;7335861;19;20025;-69
2023/04/01 05:05:24;;;;;;;18.83;10.85;;;;;;;2.47;85.97;97996.19;7336930;19;20018;-70
2023/04/01 05:07:49;;;;;;;15.25;9.38;;;;;;;2.54;85.96;98002.72;7337174;19;20015;-70
2023/04/01 05:10:13;;;;;;;19.05;9.63;;;;;;;2.64;85.97;97995.06;7336633;19;20010;-70
2023/04/01 05:12:39;;;;;;;22.38;10.45;;;;;;;2.73;85.82;97997.09;7338472;19;20073;-69
2023/04/01 05:15:06;;;;;;;13.35;8.55;;;;;;;2.81;85.63;98001.88;7342425;19;20533;-70
2023/04/01 05:17:31;;;;;;;15.63;9.65;;;;;;;2.90;85.61;97999.47;7344348;19;20840;-70
2023/04/01 05:19:56;;;;;;;15.23;9.13;;;;;;;2.99;85.25;98005.91;7344669;19;20530;-71
2023/04/01 05:22:22;;;;;;;19.25;11.07;;;;;;;3.05;84.84;98012.56;7342363;19;20034;-69
2023/04/01 05:24:47;;;;;;;18.67;9.63;;;;;;;3.09;84.33;98012.22;7343956;19;20080;-70
2023/04/01 05:27:12;;;;;;;14.95;9.27;;;;;;;3.19;84.27;98020.34;7343485;19;20033;-69
2023/04/01 05:29:38;;;;;;;17.73;9.07;;;;;;;3.18;83.61;98016.88;7343361;19;20347;-69
2023/04/01 05:32:06;;;;;;;13.88;8.85;;;;;;;3.26;83.93;98017.22;7343645;19;20020;-68
2023/04/01 05:34:31;;;;;;;14.40;8.98;;;;;;;3.35;83.69;98018.38;7345216;19;20010;-68
2023/04/01 05:36:58;;;;;;;16.55;9.82;;;;;;;3.29;83.02;98024.88;7348896;19;20011;-67
2023/04/01 05:39:23;;;;;;;21.85;9.60;;;;;;;3.35;82.89;98017.53;7345443;19;20029;-69
2023/04/01 05:41:48;;;;;;;17.02;11.25;;;;;;;3.25;82.31;98017.31;7342980;19;20018;-68
2023/04/01 05:44:13;;;;;;;17.38;9.02;;;;;;;3.33;82.88;98015.00;7347120;19;20047;-68
2023/04/01 05:46:38;;;;;;;14.05;9.32;;;;;;;3.48;83.27;98013.97;7345386;19;20025;-68
2023/04/01 05:49:18;;;;;;;16.25;9.85;;;;;;;3.60;83.13;98009.63;7347164;19;20023;-68
2023/04/01 05:51:44;;;;;;;15.57;10.20;;;;;;;3.70;82.70;98018.59;7345892;19;20007;-68
2023/04/01 05:54:09;;;;;;;17.80;9.82;;;;;;;3.79;82.65;98023.22;7345638;19;20094;-67
2023/04/01 05:56:35;;;;;;;22.88;10.27;;;;;;;3.89;82.59;98018.97;7344814;19;20003;-68
2023/04/01 05:59:00;;;;;;;18.42;9.82;;;;;;;4.04;82.55;98024.97;7345304;19;20023;-69
2023/04/01 06:01:25;;;;;;;20.70;9.93;;;;;;;4.00;81.37;98015.59;7344663;19;20827;-70
2023/04/01 06:03:50;;;;;;;17.90;10.15;;;;;;;4.08;81.32;98026.41;7345954;19;20466;-70
2023/04/01 06:06:25;;;;;;;16.63;10.38;;;;;;;4.20;81.50;98020.28;7345155;19;20042;-68
2023/04/01 06:08:52;;;;;;;16.70;10.77;;;;;;;4.30;81.07;98041.56;7349415;19;20370;-68
2023/04/01 06:11:34;;;;;;;16.35;9.50;;;;;;;4.24;80.12;98042.00;7344806;19;20049;-70
2023/04/01 06:14:17;;;;;;;19.08;11.10;;;;;;;4.29;80.51;98050.41;7345269;19;20468;-69
2023/04/01 06:16:51;;;;;;;20.27;11.63;;;;;;;4.18;80.32;98038.00;7344396;19;20018;-69
2023/04/01 06:19:32;;;;;;;25.58;11.48;;;;;;;4.22;80.56;98043.91;7344561;19;20022;-70
2023/04/01 06:22:23;;;;;;;21.85;10.93;;;;;;;4.37;80.98;98045.47;7342542;19;20022;-68
2023/04/01 06:25:23;;;;;;;18.08;10.70;;;;;;;4.27;80.74;98042.63;7347946;19;20010;-70
2023/04/01 06:28:20;;;;;;;28.65;11.98;;;;;;;4.32;80.86;98045.78;7343661;19;20022;-68
2023/04/01 06:30:50;;;;;;;25.38;11.75;;;;;;;4.36;80.58;98039.34;7343709;19;20029;-72
2023/04/01 06:33:32;;;;;;;20.83;11.77;;;;;;;4.53;80.62;98043.38;7344168;19;20018;-69
2023/04/01 06:36:06;;;;;;;22.50;12.68;;;;;;;4.65;79.88;98047.78;7343337;19;20015;-69
2023/04/01 06:38:56;;;;;;;24.83;14.10;;;;;;;4.78;79.41;98052.16;7343724;19;20018;-69
2023/04/01 06:41:26;;;;;;;19.52;10.88;;;;;;;4.80;79.12;98052.91;7341157;19;20259;-69
2023/04/01 06:44:10;;;;;;;19.38;11.52;;;;;;;4.99;79.30;98056.69;7348222;19;20017;-70
2023/04/01 06:47:23;;;;;;;16.77;10.65;;;;;;;5.15;78.72;98059.06;7348587;19;20014;-71
2023/04/01 06:50:12;;;;;;;22.38;12.07;;;;;;;5.40;78.94;98058.06;7345025;19;20020;-69
2023/04/01 06:53:17;;;;;;;21.77;13.57;;;;;;;5.71;78.47;98054.75;7341371;19;20108;-70
2023/04/01 06:56:10;;;;;;;22.88;11.95;;;;;;;6.18;77.41;98061.66;7340711;19;20019;-70
2023/04/01 06:59:02;;;;;;;20.10;11.65;;;;;;;6.67;76.78;98057.72;7341354;19;20055;-68
2023/04/01 07:01:52;;;;;;;20.73;11.02;;;;;;;7.24;75.17;98057.41;7343267;19;20443;-71
2023/04/01 07:04:23;;;;;;;24.88;11.80;;;;;;;7.63;73.49;98050.59;7348398;19;20494;-70
2023/04/01 07:06:58;;;;;;;15.20;9.35;;;;;;;8.02;71.84;98056.09;7341418;19;20017;-70
2023/04/01 07:09:31;;;;;;;17.80;11.13;;;;;;;8.33;70.79;98065.78;7340945;19;20082;-69
2023/04/01 07:12:48;;;;;;;22.48;12.07;;;;;;;8.61;69.64;98064.19;7339814;19;20086;-70
2023/04/01 07:15:41;;;;;;;21.48;10.65;;;;;;;8.73;68.01;98056.94;7339892;19;20094;-70
2023/04/01 07:18:18;;;;;;;17.00;10.13;;;;;;;8.59;66.82;98063.47;7340013;19;20085;-68
2023/04/01 07:20:43;;;;;;;15.88;10.23;;;;;;;8.46;67.59;98064.72;7340552;19;20014;-69
2023/04/01 07:23:20;;;;;;;18.45;9.43;;;;;;;8.51;66.32;98063.31;7338045;19;20022;-69
2023/04/01 07:26:14;;;;;;;17.35;10.23;;;;;;;8.79;65.40;98067.03;7343782;19;20011;-68
2023/04/01 07:29:09;;;;;;;19.35;10.38;;;;;;;9.12;64.20;98062.31;7340482;19;20018;-68
2023/04/01 07:32:07;;;;;;;17.15;10.30;;;;;;;9.56;63.49;98064.41;7345314;19;20078;-68
2023/04/01 07:34:38;;;;;;;17.65;11.40;;;;;;;9.76;62.25;98052.75;7344128;19;20026;-70
2023/04/01 07:37:13;;;;;;;19.92;10.90;;;;;;;9.94;59.93;98065.31;7341707;19;20476;-70
2023/04/01 07:40:00;;;;;;;17.10;9.77;;;;;;;10.24;62.52;98073.13;7343675;19;20085;-68
2023/04/01 07:42:54;;;;;;;17.98;9.48;;;;;;;10.03;61.23;98062.63;7343361;19;20018;-69
2023/04/01 07:45:42;;;;;;;18.30;9.20;;;;;;;10.23;62.17;98071.44;7349139;19;20022;-69
2023/04/01 07:48:16;;;;;;;17.88;9.90;;;;;;;9.73;57.69;98069.00;7345324;19;20037;-69
2023/04/01 07:51:11;;;;;;;18.05;10.10;;;;;;;9.57;58.32;98075.91;7342401;19;20011;-71
2023/04/01 07:53:59;;;;;;;12.90;9.50;;;;;;;9.48;58.85;98079.41;7341292;19;20358;-68
2023/04/01 07:56:39;;;;;;;18.92;10.13;;;;;;;9.35;59.78;98080.53;7341841;19;20787;-67
2023/04/01 07:59:50;;;;;;;15.13;8.52;;;;;;;9.39;58.22;98081.06;7340756;19;20011;-68
2023/04/01 08:02:32;;;;;;;11.90;7.73;;;;;;;9.48;57.48;98082.06;7337506;19;20070;-69
2023/04/01 08:05:16;;;;;;;17.13;9.57;;;;;;;9.22;57.61;98085.28;7338696;19;20331;-68
2023/04/01 08:08:00;;;;;;;17.17;8.38;;;;;;;9.69;58.07;98083.59;7338783;19;20018;-70
2023/04/01 08:11:22;;;;;;;18.55;10.07;;;;;;;10.53;56.46;98081.81;7338242;19;20028;-70
2023/04/01 08:14:16;;;;;;;20.65;11.70;;;;;;;11.65;54.95;98082.31;7339255;19;20030;-70
2023/04/01 08:17:35;;;;;;;18.92;10.45;;;;;;;11.85;54.00;98075.81;7344210;19;20371;-69
2023/04/01 08:20:12;;;;;;;21.92;12.75;;;;;;;11.83;54.16;98088.50;7348570;19;20056;-68
2023/04/01 08:22:48;;;;;;;21.17;11.82;;;;;;;12.25;54.10;98085.09;7341010;19;20034;-69
2023/04/01 08:25:29;;;;;;;18.10;10.93;;;;;;;12.94;53.19;98081.41;7338737;19;20015;-68
2023/04/01 08:28:03;;;;;;;20.92;13.23;;;;;;;13.89;49.01;98086.22;7348090;19;20358;-74
2023/04/01 08:30:40;;;;;;;15.95;11.02;;;;;;;15.40;48.72;98096.81;7353925;19;20146;-73
2023/04/01 08:33:16;;;;;;;20.10;11.65;;;;;;;17.04;44.56;98081.66;7353821;19;20014;-73
2023/04/01 08:35:51;;;;;;;23.40;10.82;;;;;;;17.81;42.50;98090.00;7351098;19;20035;-74
2023/04/01 08:38:40;;;;;;;21.88;11.60;;;;;;;17.31;40.22;98083.63;7347042;19;20014;-74
2023/04/01 08:41:39;;;;;;;18.42;12.40;;;;;;;17.00;40.05;98086.59;7343895;19;20018;-74
2023/04/01 08:45:01;;;;;;;16.38;9.98;;;;;;;17.06;40.80;98091.19;7339076;19;20018;-69
2023/04/01 08:47:50;;;;;;;15.82;9.57;;;;;;;17.87;41.67;98088.38;7339753;19;20046;-68
2023/04/01 08:50:51;;;;;;;17.55;11.20;;;;;;;18.91;35.79;98089.34;7339479;19;20018;-70
2023/04/01 08:54:06;;;;;;;13.35;9.25;;;;;;;20.65;36.36;98087.34;7340658;19;20010;-69
2023/04/01 08:56:35;;;;;;;15.65;10.35;;;;;;;21.70;32.05;98082.56;7340458;19;20078;-68
2023/04/01 08:59:36;;;;;;;13.95;9.93;;;;;;;22.92;34.01;98083.84;7338753;19;20011;-67
2023/04/01 09:02:27;;;;;;;15.27;9.65;;;;;;;22.09;29.56;98086.94;7338980;19;20480;-70
2023/04/01 09:05:36;;;;;;;21.13;11.23;;;;;;;23.59;27.63;98092.91;7339266;19;20026;-70
2023/04/01 09:08:21;;;;;;;14.88;10.32;;;;;;;21.70;30.86;98096.13;7339242;19;20019;-71
2023/04/01 09:10:56;;;;;;;15.07;11.20;;;;;;;21.06;31.70;98096.22;7340701;19;20022;-70
2023/04/01 09:14:01;;;;;;;17.40;12.30;;;;;;;21.09;31.65;98103.94;7340299;19;20045;-70
2023/04/01 09:17:02;;;;;;;16.38;11.80;;;;;;;20.99;31.99;98110.59;7338824;19;20011;-69
2023/04/01 09:19:49;;;;;;;12.45;9.45;;;;;;;21.97;33.88;98115.78;7337827;19;20021;-69
2023/04/01 09:22:33;;;;;;;16.50;9.65;;;;;;;22.07;30.79;98117.00;7337612;19;20087;-68
2023/04/01 09:25:21;;;;;;;16.90;9.15;;;;;;;22.98;28.62;98110.13;7351335;19;20014;-68
2023/04/01 09:28:05;;;;;;;10.48;8.50;;;;;;;23.18;31.92;98106.13;7353995;19;20416;-70
2023/04/01 09:30:52;;;;;;;11.32;8.82;;;;;;;21.67;29.84;98116.38;7350972;19;20083;-69
2023/04/01 09:34:01;;;;;;;18.45;8.98;;;;;;;23.10;32.43;98102.91;7341513;19;20439;-70
2023/04/01 09:36:51;;;;;;;11.50;8.38;;;;;;;23.55;29.55;98114.28;7338744;19;20010;-67
2023/04/01 09:39:30;;;;;;;12.18;8.77;;;;;;;21.62;29.68;98128.94;7338053;19;20021;-68
2023/04/01 09:42:04;;;;;;;10.43;8.25;;;;;;;20.01;32.30;98122.34;7336418;19;20014;-69
2023/04/01 09:44:44;;;;;;;11.82;8.82;;;;;;;19.28;32.98;98132.13;7337965;19;20093;-70
2023/04/01 09:47:22;;;;;;;11.02;7.57;;;;;;;19.59;32.94;98128.94;7343737;19;20018;-69
2023/04/01 09:50:06;;;;;;;8.05;6.57;;;;;;;22.21;29.61;98125.06;7337812;19;20026;-69
2023/04/01 09:52:47;;;;;;;13.00;7.50;;;;;;;24.42;27.00;98125.56;7337081;19;20011;-70
2023/04/01 09:55:31;;;;;;;11.30;7.18;;;;;;;24.11;27.91;98132.94;7337358;19;20035;-68
2023/04/01 09:58:22;;;;;;;9.13;6.78;;;;;;;22.68;28.29;98131.75;7337512;19;20529;-69
2023/04/01 10:01:32;;;;;;;11.32;7.18;;;;;;;23.13;29.46;98135.06;7341095;19;20081;-67
2023/04/01 10:04:16;;;;;;;11.73;7.05;;;;;;;22.72;27.94;98136.50;7349692;19;20014;-71
2023/04/01 10:07:17;;;;;;;8.32;6.65;;;;;;;22.65;28.42;98137.63;7361846;19;20042;-69
2023/04/01 10:09:42;;;;;;;9.32;6.20;;;;;;;22.60;27.03;98129.28;7355065;19;20474;-68
2023/04/01 10:12:47;;;;;;;7.05;5.60;;;;;;;23.74;25.69;98134.94;7355530;19;20524;-68
2023/04/01 10:15:43;;;;;;;12.90;6.32;;;;;;;24.42;24.80;98140.03;7361010;19;20022;-71
2023/04/01 10:18:53;;;;;;;8.82;6.65;;;;;;;24.04;27.34;98145.81;7361685;19;20025;-69
2023/04/01 10:21:41;;;;;;;8.93;5.88;;;;;;;22.05;28.75;98156.25;7360223;19;20022;-68
2023/04/01 10:24:46;;;;;;;11.10;8.30;;;;;;;19.24;30.69;98136.25;7360838;19;20010;-72
2023/04/01 10:27:39;;;;;;;7.68;5.97;;;;;;;16.84;33.97;98148.69;7365265;19;20039;-69
2023/04/01 10:30:27;;;;;;;12.40;6.60;;;;;;;15.41;36.11;98152.19;7362087;19;20018;-72
2023/04/01 10:33:22;;;;;;;12.20;5.55;;;;;;;14.38;37.93;98147.81;7352940;19;20488;-70
2023/04/01 10:36:23;;;;;;;8.07;5.50;;;;;;;14.04;39.17;98167.63;7343883;19;20022;-70
2023/04/01 10:39:08;;;;;;;8.40;6.18;;;;;;;12.89;41.20;98156.78;7343220;19;20021;-69
2023/04/01 10:41:53;;;;;;;10.00;6.13;;;;;;;12.51;42.32;98154.59;7342256;19;20485;-69
2023/04/01 10:44:55;;;;;;;9.05;5.90;;;;;;;12.46;43.29;98157.72;7344843;19;20014;-69
2023/04/01 10:47:33;;;;;;;7.80;5.38;;;;;;;12.12;43.60;98171.00;7343188;19;20361;-68
2023/04/01 10:50:24;;;;;;;10.52;6.25;;;;;;;11.93;43.42;98164.03;7343510;19;20010;-66
2023/04/01 10:53:24;;;;;;;10.38;5.57;;;;;;;11.23;45.79;98168.28;7343424;19;20118;-69
2023/04/01 10:56:21;;;;;;;10.95;5.10;;;;;;;11.00;46.08;98169.69;7343403;19;20102;-69
2023/04/01 10:59:28;;;;;;;9.57;5.45;;;;;;;11.16;45.49;98169.06;7344670;19;20419;-69
2023/04/01 11:02:30;;;;;;;9.10;6.00;;;;;;;11.13;45.58;98172.00;7344729;19;20041;-71
2023/04/01 11:05:34;;;;;;;8.05;5.10;;;;;;;11.58;44.69;98169.34;7344733;19;20030;-70
2023/04/01 11:08:17;;;;;;;9.20;5.45;;;;;;;11.99;43.65;98168.72;7342886;19;20015;-73
2023/04/01 11:11:03;;;;;;;10.95;5.25;;;;;;;12.27;43.17;98165.94;7343422;19;20014;-71
2023/04/01 11:14:00;;;;;;;7.40;4.90;;;;;;;12.41;43.12;98176.06;7342813;19;20015;-69
2023/04/01 11:17:15;;;;;;;8.38;5.18;;;;;;;12.33;42.68;98167.97;7343138;19;20025;-69
2023/04/01 11:20:01;;;;;;;10.30;6.30;;;;;;;12.46;42.83;98179.09;7340075;19;20010;-69
2023/04/01 11:22:43;;;;;;;12.57;6.20;;;;;;;12.02;43.08;98174.75;7339095;19;20478;-68
2023/04/01 11:25:20;;;;;;;12.20;5.85;;;;;;;11.84;43.86;98174.78;7340854;19;20034;-69
2023/04/01 11:28:25;;;;;;;9.45;5.53;;;;;;;11.58;44.86;98177.34;7340814;19;20026;-66
2023/04/01 11:31:21;;;;;;;8.70;6.10;;;;;;;11.49;45.48;98179.09;7341038;19;20193;-68
2023/04/01 11:33:57;;;;;;;15.15;6.15;;;;;;;11.47;46.08;98188.22;7340780;19;20042;-69
2023/04/01 11:36:40;;;;;;;11.35;5.72;;;;;;;11.48;46.08;98176.56;7340080;19;20800;-74
2023/04/01 11:39:43;;;;;;;8.32;5.53;;;;;;;11.30;46.56;98197.88;7339899;19;20014;-68
2023/04/01 11:43:01;;;;;;;8.25;6.07;;;;;;;11.36;46.61;98181.28;7338394;19;20043;-70
2023/04/01 11:46:11;;;;;;;8.25;5.85;;;;;;;11.16;46.76;98191.22;7339419;19;20106;-71
2023/04/01 11:48:45;;;;;;;10.90;5.20;;;;;;;11.13;46.96;98191.53;7338760;19;20018;-71
2023/04/01 11:51:15;;;;;;;7.85;5.22;;;;;;;10.73;47.87;98183.81;7338941;19;20015;-70
2023/04/01 11:54:25;;;;;;;10.05;5.68;;;;;;;10.84;47.40;98193.47;7342983;19;20093;-68
2023/04/01 11:57:27;;;;;;;8.23;4.95;;;;;;;10.73;46.99;98196.31;7338721;19;20356;-69
2023/04/01 12:00:31;;;;;;;8.75;4.95;;;;;;;10.78;47.35;98191.41;7339949;19;20355;-72
2023/04/01 12:03:30;;;;;;;7.43;4.93;;;;;;;10.59;47.34;98191.47;7341847;19;20010;-70
2023/04/01 12:06:16;;;;;;;10.32;5.25;;;;;;;10.44;47.80;98197.25;7341244;19;20019;-71
2023/04/01 12:08:53;;;;;;;9.10;5.53;;;;;;;10.43;47.75;98200.06;7343982;19;20049;-72
2023/04/01 12:11:39;;;;;;;10.40;6.05;;;;;;;10.45;48.24;98193.63;7350742;19;20036;-68
2023/04/01 12:14:20;;;;;;;8.10;4.57;;;;;;;10.51;48.12;98203.69;7349006;19;20010;-70
2023/04/01 12:16:48;;;;;;;7.80;5.30;;;;;;;10.37;47.47;98205.97;7347446;19;20019;-70
2023/04/01 12:19:28;;;;;;;7.88;4.32;;;;;;;10.41;47.54;98200.19;7342905;19;20089;-68